createdAt,value
2023-05-14T05:01:57.178Z,62.97
2023-05-14T05:06:58.647Z,63.20
2023-05-14T05:12:01.479Z,63.18
2023-05-14T05:17:02.958Z,63.16
2023-05-14T05:22:04.758Z,63.31
2023-05-14T05:27:06.294Z,63.09
2023-05-14T05:32:08.065Z,63.55
2023-05-14T05:37:12.643Z,63.59
2023-05-14T05:42:14.547Z,63.49
2023-05-14T05:47:17.034Z,64.10
2023-05-14T05:52:18.477Z,63.36
2023-05-14T05:57:19.913Z,63.54
2023-05-14T06:02:21.490Z,64.07
2023-05-14T06:07:22.942Z,64.17
2023-05-14T06:12:24.366Z,63.78
2023-05-14T06:17:25.953Z,64.23
2023-05-14T06:22:27.435Z,63.85
2023-05-14T06:27:28.852Z,63.35
2023-05-14T06:32:30.374Z,63.01
2023-05-14T06:37:32.027Z,62.89
2023-05-14T06:42:33.542Z,62.99
2023-05-14T06:47:35.043Z,62.69
2023-05-14T06:52:36.967Z,62.63
2023-05-14T06:57:40.563Z,62.60
2023-05-14T07:02:42.313Z,62.17
2023-05-14T07:07:43.766Z,62.39
2023-05-14T07:12:45.484Z,62.37
2023-05-14T07:17:46.982Z,62.24
2023-05-14T07:22:48.508Z,61.91
2023-05-14T07:27:49.952Z,61.76
2023-05-14T07:32:51.677Z,61.20
2023-05-14T07:37:54.145Z,61.30
2023-05-14T07:42:55.625Z,61.56
2023-05-14T07:47:57.092Z,61.70
2023-05-14T07:52:58.574Z,61.38
2023-05-14T07:58:00.303Z,61.35
2023-05-14T08:03:01.845Z,61.28
2023-05-14T08:08:03.595Z,61.40
2023-05-14T08:13:05.094Z,61.35
2023-05-14T08:18:06.583Z,60.91
2023-05-14T08:23:09.073Z,60.73
2023-05-14T08:28:10.569Z,60.21
2023-05-14T08:33:12.081Z,59.87
2023-05-14T08:38:13.516Z,58.83
2023-05-14T08:43:20.351Z,58.29
2023-05-14T08:48:23.029Z,58.60
2023-05-14T08:53:24.573Z,58.51
2023-05-14T08:58:26.684Z,57.50
2023-05-14T09:03:29.092Z,57.07
2023-05-14T09:08:30.906Z,56.96
2023-05-14T09:13:32.373Z,56.53
2023-05-14T09:18:36.015Z,55.95
2023-05-14T09:23:41.933Z,55.78
2023-05-14T09:28:43.480Z,54.91
2023-05-14T09:33:50.466Z,54.36
2023-05-14T09:38:51.854Z,54.24
2023-05-14T09:43:53.752Z,53.94
2023-05-14T09:48:55.939Z,53.67
2023-05-14T09:53:57.292Z,54.74
2023-05-14T09:58:58.912Z,54.55
2023-05-14T10:04:03.981Z,54.13
2023-05-14T10:09:13.212Z,53.25
2023-05-14T10:14:20.895Z,52.77
2023-05-14T10:19:27.943Z,53.19
2023-05-14T10:24:30.008Z,52.86
2023-05-14T10:29:33.758Z,52.13
2023-05-14T10:34:44.098Z,51.51
2023-05-14T10:40:01.467Z,51.24
2023-05-14T10:45:07.390Z,50.41
2023-05-14T10:50:11.427Z,50.68
2023-05-14T10:55:15.020Z,50.12
2023-05-14T11:00:17.181Z,50.44
2023-05-14T11:05:18.670Z,50.44
2023-05-14T11:10:21.844Z,50.77
2023-05-14T11:15:28.212Z,51.34
2023-05-14T11:20:29.740Z,52.17
2023-05-14T11:25:31.350Z,52.50
2023-05-14T11:30:32.793Z,52.50
2023-05-14T11:35:36.536Z,52.30
2023-05-14T11:40:37.983Z,52.29
2023-05-14T11:45:39.522Z,51.51
2023-05-14T11:50:45.186Z,51.09
2023-05-14T11:55:47.810Z,51.35
2023-05-14T12:00:55.000Z,51.12
2023-05-14T12:06:00.848Z,50.22
2023-05-14T12:11:02.265Z,49.77
2023-05-14T12:16:03.902Z,49.96
2023-05-14T12:21:08.171Z,50.37
2023-05-14T12:26:09.706Z,49.76
2023-05-14T12:31:11.229Z,50.00
2023-05-14T12:36:21.691Z,49.30
2023-05-14T12:41:23.715Z,48.87
2023-05-14T12:46:27.494Z,47.95
2023-05-14T12:51:29.056Z,47.70
2023-05-14T12:56:31.959Z,46.76
2023-05-14T13:01:33.597Z,45.50
2023-05-14T13:06:35.199Z,45.53
2023-05-14T13:11:36.611Z,45.81
2023-05-14T13:16:38.076Z,44.94
2023-05-14T13:21:39.526Z,43.99
2023-05-14T13:26:40.922Z,44.01
2023-05-14T13:31:42.382Z,43.59
2023-05-14T13:36:43.926Z,43.79
2023-05-14T13:41:45.503Z,43.73
2023-05-14T13:46:47.260Z,43.95
2023-05-14T13:51:48.629Z,44.83
2023-05-14T13:56:50.152Z,44.79
2023-05-14T14:01:51.727Z,44.48
2023-05-14T14:06:53.249Z,44.75
2023-05-14T14:11:54.811Z,44.87
2023-05-14T14:16:56.302Z,44.71
2023-05-14T14:21:57.917Z,44.89
2023-05-14T14:26:59.411Z,44.71
2023-05-14T14:32:01.727Z,44.82
2023-05-14T14:37:03.281Z,44.87
2023-05-14T14:42:05.617Z,45.05
2023-05-14T14:47:07.058Z,44.89
2023-05-14T14:52:08.779Z,45.25
2023-05-14T14:57:10.387Z,45.54
2023-05-14T15:02:11.826Z,46.22
2023-05-14T15:07:15.782Z,46.27
2023-05-14T15:12:17.321Z,46.51
2023-05-14T15:17:18.745Z,47.04
2023-05-14T15:22:20.210Z,46.84
2023-05-14T15:27:21.628Z,47.34
2023-05-14T15:32:24.078Z,47.41
2023-05-14T15:37:26.635Z,47.67
2023-05-14T15:42:28.113Z,48.10
2023-05-14T15:47:29.560Z,48.11
2023-05-14T15:52:31.487Z,48.02
2023-05-14T15:57:33.240Z,47.80
2023-05-14T16:02:34.697Z,47.33
2023-05-14T16:07:36.633Z,47.31
2023-05-14T16:12:38.114Z,47.43
2023-05-14T16:17:39.596Z,47.87
2023-05-14T16:22:41.167Z,48.20
2023-05-14T16:27:42.984Z,48.67
2023-05-14T16:32:48.389Z,48.89
2023-05-14T16:37:50.427Z,48.84
2023-05-14T16:42:51.890Z,48.48
2023-05-14T16:47:53.336Z,48.79
2023-05-14T16:52:54.883Z,48.28
2023-05-14T16:57:56.464Z,48.05
2023-05-14T17:02:57.927Z,48.20
2023-05-14T17:07:59.440Z,48.46
2023-05-14T17:13:01.039Z,48.23
2023-05-14T17:18:02.563Z,48.34
2023-05-14T17:23:04.072Z,48.70
2023-05-14T17:28:05.525Z,48.98
2023-05-14T17:33:07.143Z,49.56
2023-05-14T17:38:08.800Z,49.73
2023-05-14T17:43:10.339Z,49.86
2023-05-14T17:48:11.887Z,50.26
2023-05-14T17:53:13.813Z,50.48
2023-05-14T17:58:15.874Z,50.22
2023-05-14T18:03:20.095Z,50.12
2023-05-14T18:08:21.749Z,50.23
2023-05-14T18:13:23.161Z,50.20
2023-05-14T18:18:24.601Z,50.43
2023-05-14T18:23:26.060Z,50.40
2023-05-14T18:28:27.870Z,50.35
2023-05-14T18:33:30.253Z,50.87
2023-05-14T18:38:32.748Z,50.89
2023-05-14T18:43:34.186Z,50.98
2023-05-14T18:48:35.682Z,51.23
2023-05-14T18:53:37.144Z,51.42
2023-05-14T18:58:38.559Z,51.68
2023-05-14T19:03:41.931Z,51.90
2023-05-14T19:08:43.437Z,52.29
2023-05-14T19:13:46.681Z,52.88
2023-05-14T19:18:48.458Z,53.15
2023-05-14T19:23:49.947Z,53.41
2023-05-14T19:28:52.555Z,53.53
2023-05-14T19:33:54.641Z,53.98
2023-05-14T19:38:56.042Z,54.23
2023-05-14T19:43:57.494Z,54.40
2023-05-14T19:48:59.065Z,54.55
2023-05-14T19:54:01.062Z,54.80
2023-05-14T19:59:02.496Z,55.18
2023-05-14T20:04:04.060Z,55.32
2023-05-14T20:09:05.811Z,55.13
2023-05-14T20:14:07.389Z,55.69
2023-05-14T20:19:08.877Z,55.71
2023-05-14T20:24:10.359Z,56.29
2023-05-14T20:29:14.261Z,56.11
2023-05-14T20:34:15.783Z,56.47
2023-05-14T20:39:17.207Z,56.97
2023-05-14T20:44:20.543Z,56.98
2023-05-14T20:49:22.181Z,57.24
2023-05-14T20:54:23.590Z,57.31
2023-05-14T20:59:25.010Z,57.06
2023-05-14T21:04:26.666Z,57.26
2023-05-14T21:09:28.389Z,57.35
2023-05-14T21:14:29.831Z,57.30
2023-05-14T21:19:31.250Z,57.42
2023-05-14T21:24:32.656Z,57.41
2023-05-14T21:29:34.098Z,57.77
2023-05-14T21:34:35.538Z,57.80
2023-05-14T21:39:36.950Z,58.01
2023-05-14T21:44:38.370Z,58.12
2023-05-14T21:49:40.443Z,58.10
2023-05-14T21:54:41.880Z,57.64
2023-05-14T21:59:43.289Z,58.20
